Time;durP1;ratioP1;P1;durP2;ratioP2;P2;SDS_P1;SDS_P2;PMS_P1;PMS_P2;Temp;Humidity;BMP_temperature;BMP_pressure;BME280_temperature;BME280_humidity;BME280_pressure;Samples;Min_cycle;Max_cycle;Signal;HPM_P1;HPM_P2
2022/04/28 00:00:43;;;;;;;13.10;5.90;;;5.40;99.90;;;;;;5113757;28;20270;-88
2022/04/28 00:03:11;;;;;;;12.87;6.37;;;5.40;99.90;;;;;;5114619;28;20565;-89
2022/04/28 00:05:39;;;;;;;15.90;7.60;;;5.40;99.90;;;;;;5114697;28;20221;-86
2022/04/28 00:08:07;;;;;;;12.63;7.77;;;5.30;99.90;;;;;;5114468;28;20608;-90
2022/04/28 00:10:35;;;;;;;13.83;7.73;;;5.20;99.90;;;;;;5114825;28;20185;-85
2022/04/28 00:13:02;;;;;;;11.23;7.37;;;5.20;99.90;;;;;;5114592;28;20227;-89
2022/04/28 00:15:29;;;;;;;11.70;6.70;;;5.10;99.90;;;;;;5114124;28;20193;-85
2022/04/28 00:17:57;;;;;;;12.20;7.20;;;5.00;99.90;;;;;;5114161;28;20231;-86
2022/04/28 00:20:24;;;;;;;14.87;7.40;;;5.00;99.90;;;;;;5114117;28;20227;-85
2022/04/28 00:22:52;;;;;;;13.80;8.23;;;4.90;99.90;;;;;;5114245;27;20278;-86
2022/04/28 00:25:20;;;;;;;16.57;7.97;;;4.80;99.90;;;;;;5114035;28;20250;-85
2022/04/28 00:27:48;;;;;;;18.03;9.47;;;4.70;99.90;;;;;;5113966;28;20249;-86
2022/04/28 00:30:14;;;;;;;15.07;7.93;;;4.70;99.90;;;;;;5113920;28;20220;-85
2022/04/28 00:32:41;;;;;;;15.43;9.13;;;4.70;99.90;;;;;;5113435;28;20211;-85
2022/04/28 00:35:09;;;;;;;14.50;9.00;;;4.80;99.90;;;;;;5113653;28;20655;-85
2022/04/28 00:37:36;;;;;;;13.10;7.63;;;4.80;99.90;;;;;;5113714;28;20233;-85
2022/04/28 00:40:06;;;;;;;18.03;8.80;;;4.80;99.90;;;;;;5114013;28;20235;-85
2022/04/28 00:42:33;;;;;;;13.73;8.60;;;4.80;99.90;;;;;;5113550;28;20233;-85
2022/04/28 00:45:00;;;;;;;14.47;8.60;;;4.80;99.90;;;;;;5113497;28;20219;-85
2022/04/28 00:50:38;;;;;;;15.53;8.57;;;4.80;99.90;;;;;;5113626;28;20220;-86
2022/04/28 00:52:59;;;;;;;17.43;9.33;;;4.80;99.90;;;;;;5113299;28;20210;-86
2022/04/28 00:55:29;;;;;;;17.10;10.20;;;4.80;99.90;;;;;;5113512;28;20313;-86
2022/04/28 00:57:56;;;;;;;14.03;8.20;;;4.80;99.90;;;;;;5113367;28;20196;-84
2022/04/28 01:00:23;;;;;;;15.30;8.73;;;4.90;99.90;;;;;;5113040;28;20288;-86
2022/04/28 01:02:50;;;;;;;14.50;8.63;;;4.90;99.90;;;;;;5113482;28;20205;-86
2022/04/28 01:05:17;;;;;;;15.47;8.47;;;4.90;99.90;;;;;;5112939;28;20189;-85
2022/04/28 01:07:44;;;;;;;16.67;9.00;;;4.80;99.90;;;;;;5113619;28;20275;-89
2022/04/28 01:10:11;;;;;;;16.03;8.80;;;4.80;99.90;;;;;;5113349;28;20657;-89
2022/04/28 01:12:39;;;;;;;16.13;9.17;;;4.80;99.90;;;;;;5114080;28;20677;-85
2022/04/28 01:15:07;;;;;;;16.90;9.23;;;4.80;99.90;;;;;;5113807;28;20244;-89
2022/04/28 01:17:34;;;;;;;17.30;9.67;;;4.80;99.90;;;;;;5114148;28;20193;-87
2022/04/28 01:20:01;;;;;;;13.97;8.57;;;4.70;99.90;;;;;;5113612;28;20205;-85
2022/04/28 01:22:29;;;;;;;15.27;9.37;;;4.70;99.90;;;;;;5113942;28;20231;-86
2022/04/28 01:24:56;;;;;;;16.10;9.03;;;4.60;99.90;;;;;;5113508;28;20287;-90
2022/04/28 01:27:26;;;;;;;17.50;9.53;;;4.60;99.90;;;;;;5113278;28;20639;-91
2022/04/28 01:29:53;;;;;;;17.43;10.80;;;4.50;99.90;;;;;;5113867;28;20316;-91
2022/04/28 01:32:20;;;;;;;15.17;8.97;;;4.50;99.90;;;;;;5112922;28;20196;-85
2022/04/28 01:34:47;;;;;;;15.13;9.47;;;4.40;99.90;;;;;;5112835;28;20186;-86
2022/04/28 01:37:14;;;;;;;14.73;9.70;;;4.40;99.90;;;;;;5112638;28;20200;-85
2022/04/28 01:39:42;;;;;;;13.80;9.00;;;4.40;99.90;;;;;;5112877;28;20227;-86
2022/04/28 01:42:09;;;;;;;14.47;9.07;;;4.30;99.90;;;;;;5112809;28;20215;-87
2022/04/28 01:44:36;;;;;;;18.20;9.00;;;4.30;99.90;;;;;;5113226;28;20188;-86
2022/04/28 01:47:04;;;;;;;15.60;9.70;;;4.20;99.90;;;;;;5113016;28;20231;-86
2022/04/28 01:49:31;;;;;;;15.97;9.43;;;4.20;99.90;;;;;;5112652;28;20229;-86
2022/04/28 01:55:01;;;;;;;19.50;10.60;;;4.10;99.90;;;;;;5112762;28;20246;-87
2022/04/28 01:57:30;;;;;;;19.43;10.50;;;4.10;1.00;;;;;;5112882;28;20268;-87
2022/04/28 01:59:58;;;;;;;16.13;9.77;;;4.10;1.00;;;;;;5112515;28;20283;-86
2022/04/28 02:02:25;;;;;;;19.07;9.77;;;4.10;1.00;;;;;;5112692;28;20224;-86
2022/04/28 02:04:52;;;;;;;15.57;9.30;;;4.10;1.00;;;;;;5112384;28;20223;-85
2022/04/28 02:07:19;;;;;;;19.13;9.53;;;4.10;1.00;;;;;;5112295;28;20215;-86
2022/04/28 02:09:47;;;;;;;14.93;9.47;;;4.10;1.00;;;;;;5112547;28;20227;-86
2022/04/28 02:12:14;;;;;;;16.93;10.03;;;4.10;1.00;;;;;;5112376;28;20262;-87
2022/04/28 02:14:41;;;;;;;18.07;9.50;;;4.20;1.00;;;;;;5111909;28;20195;-87
2022/04/28 02:17:09;;;;;;;14.83;9.37;;;4.20;1.00;;;;;;5113166;28;20206;-87
2022/04/28 02:19:36;;;;;;;17.37;9.93;;;4.20;1.00;;;;;;5112918;28;20285;-86
2022/04/28 02:22:04;;;;;;;17.33;9.30;;;4.20;1.00;;;;;;5112353;28;20726;-86
2022/04/28 02:24:30;;;;;;;16.33;9.60;;;4.20;1.00;;;;;;5115739;28;20237;-85
2022/04/28 02:26:59;;;;;;;19.20;9.10;;;4.20;1.00;;;;;;5116371;28;20614;-85
2022/04/28 02:29:26;;;;;;;18.73;9.17;;;4.20;1.00;;;;;;5116068;28;20258;-87
2022/04/28 02:31:52;;;;;;;17.57;8.67;;;4.10;1.00;;;;;;5115884;28;20282;-87
2022/04/28 02:34:20;;;;;;;17.43;9.93;;;4.10;1.00;;;;;;5116115;28;20246;-87
2022/04/28 02:36:47;;;;;;;15.47;9.70;;;4.10;1.00;;;;;;5115608;28;20605;-87
2022/04/28 02:39:15;;;;;;;17.90;9.70;;;4.10;1.00;;;;;;5116293;28;20277;-87
2022/04/28 02:41:42;;;;;;;19.43;9.67;;;4.00;1.00;;;;;;5116160;28;20201;-86
2022/04/28 02:44:12;;;;;;;16.20;9.33;;;4.00;1.00;;;;;;5116224;28;20227;-87
2022/04/28 02:46:39;;;;;;;16.90;9.40;;;4.00;1.00;;;;;;5116380;28;20248;-87
2022/04/28 02:49:06;;;;;;;17.00;8.80;;;4.00;1.00;;;;;;5116186;28;20197;-87
2022/04/28 02:51:33;;;;;;;18.60;9.47;;;3.90;1.00;;;;;;5115886;28;20235;-86
2022/04/28 02:53:59;;;;;;;16.83;8.47;;;3.90;1.00;;;;;;5115866;28;20250;-87
2022/04/28 02:56:26;;;;;;;19.00;9.70;;;3.80;1.00;;;;;;5115762;28;20281;-86
2022/04/28 02:58:53;;;;;;;15.10;9.13;;;3.80;1.00;;;;;;5115919;28;20291;-87
2022/04/28 03:01:22;;;;;;;14.20;8.90;;;3.80;1.00;;;;;;5115768;28;20234;-87
2022/04/28 03:03:49;;;;;;;18.47;9.83;;;3.70;1.00;;;;;;5115320;28;20622;-87
2022/04/28 03:11:45;;;;;;;16.60;9.43;;;3.60;1.00;;;;;;5115374;28;20174;-87
2022/04/28 03:14:12;;;;;;;22.13;9.60;;;3.50;1.00;;;;;;5115484;28;20306;-86
2022/04/28 03:16:40;;;;;;;18.13;9.93;;;3.50;1.00;;;;;;5115300;28;20643;-87
2022/04/28 03:19:07;;;;;;;17.10;9.10;;;3.40;1.00;;;;;;5115563;28;20229;-87
2022/04/28 03:21:35;;;;;;;19.77;10.13;;;3.40;1.00;;;;;;5115050;28;20234;-87
2022/04/28 03:24:02;;;;;;;18.33;9.90;;;3.40;1.00;;;;;;5115014;28;20220;-87
2022/04/28 03:26:29;;;;;;;23.40;11.33;;;3.40;1.00;;;;;;5115205;28;20218;-86
2022/04/28 03:28:57;;;;;;;20.17;11.03;;;3.40;1.00;;;;;;5114902;28;20649;-87
2022/04/28 03:31:24;;;;;;;18.97;9.60;;;3.40;1.00;;;;;;5115112;28;20283;-87
2022/04/28 03:33:53;;;;;;;19.97;10.03;;;3.40;1.00;;;;;;5114611;28;20301;-86
2022/04/28 03:39:19;;;;;;;14.33;8.73;;;3.50;1.00;;;;;;5032143;28;20654;-87
2022/04/28 03:41:46;;;;;;;15.10;8.23;;;3.50;1.00;;;;;;5031921;28;20226;-87
2022/04/28 03:44:13;;;;;;;17.43;8.73;;;3.60;1.00;;;;;;5067624;28;20211;-87
2022/04/28 03:46:40;;;;;;;20.90;11.70;;;3.60;1.00;;;;;;5114924;28;20198;-86
2022/04/28 03:49:08;;;;;;;20.83;12.30;;;3.70;1.00;;;;;;5115002;28;20280;-86
2022/04/28 03:51:35;;;;;;;18.43;12.00;;;3.70;1.00;;;;;;5114578;28;20252;-86
2022/04/28 03:54:03;;;;;;;22.40;15.70;;;3.70;1.00;;;;;;5114462;28;20210;-85
2022/04/28 03:56:31;;;;;;;26.60;14.97;;;3.80;1.00;;;;;;5114331;28;20190;-87
2022/04/28 03:58:58;;;;;;;19.80;12.80;;;3.80;1.00;;;;;;5115346;28;20223;-89
2022/04/28 04:01:25;;;;;;;30.97;21.07;;;3.90;7.20;;;;;;5115316;28;20199;-86
2022/04/28 04:03:52;;;;;;;26.17;16.87;;;3.90;40.50;;;;;;5114051;28;20673;-86
2022/04/28 04:06:21;;;;;;;26.57;17.97;;;3.90;99.90;;;;;;5114427;28;20278;-87
2022/04/28 04:08:49;;;;;;;19.93;13.37;;;4.00;99.90;;;;;;5114391;28;20190;-87
2022/04/28 04:11:16;;;;;;;17.33;12.30;;;4.00;99.90;;;;;;5114923;28;20536;-88
2022/04/28 04:13:43;;;;;;;43.80;29.53;;;4.10;99.90;;;;;;5115139;28;20247;-85
2022/04/28 04:16:11;;;;;;;57.13;35.97;;;4.20;99.90;;;;;;5115413;28;20227;-88
2022/04/28 04:18:38;;;;;;;118.57;68.23;;;4.30;99.90;;;;;;5114964;28;20279;-89
2022/04/28 04:21:05;;;;;;;80.07;47.37;;;4.30;99.90;;;;;;5114619;28;20744;-89
2022/04/28 04:23:34;;;;;;;56.80;35.07;;;4.50;99.90;;;;;;5114660;28;20245;-89
2022/04/28 04:26:02;;;;;;;33.00;20.67;;;4.50;99.90;;;;;;5115191;28;20192;-87
2022/04/28 04:28:29;;;;;;;23.13;15.20;;;4.70;99.90;;;;;;5114356;28;20205;-87
2022/04/28 04:33:40;;;;;;;16.20;9.20;;;6.10;99.90;;;;;;5114605;28;20557;-87
2022/04/28 04:36:07;;;;;;;37.13;31.67;;;7.30;1.00;;;;;;5115002;28;20226;-92
2022/04/28 04:38:36;;;;;;;9.73;6.67;;;8.30;99.90;;;;;;5115185;28;20269;-89
2022/04/28 04:41:03;;;;;;;12.17;5.87;;;9.30;1.00;;;;;;5114604;28;20681;-91
2022/04/28 04:43:29;;;;;;;6.97;4.70;;;10.20;99.90;;;;;;5114564;28;20273;-88
2022/04/28 04:45:56;;;;;;;9.57;4.83;;;10.90;1.00;;;;;;5113727;28;20243;-88
2022/04/28 04:48:24;;;;;;;8.30;4.57;;;11.60;1.00;;;;;;5114610;28;20232;-91
2022/04/28 04:50:53;;;;;;;7.30;4.30;;;12.40;99.90;;;;;;5114383;28;20200;-89
2022/04/28 04:53:19;;;;;;;7.30;4.60;;;13.00;99.90;;;;;;5113933;28;20223;-91
2022/04/28 04:55:48;;;;;;;9.00;5.33;;;13.70;99.90;;;;;;5113703;28;20648;-89
2022/04/28 04:58:15;;;;;;;12.88;5.90;;;14.50;89.70;;;;;;5114024;28;20283;-87
2022/04/28 05:00:42;;;;;;;8.77;4.75;;;15.20;1.90;;;;;;5114002;28;20614;-86
2022/04/28 05:03:09;;;;;;;12.55;5.43;;;15.90;1.00;;;;;;5115495;28;20694;-91
2022/04/28 05:05:36;;;;;;;11.07;5.90;;;16.60;1.00;;;;;;5112730;28;20341;-86
2022/04/28 05:08:03;;;;;;;11.40;5.43;;;17.40;1.00;;;;;;5111452;28;20198;-87
2022/04/28 05:10:30;;;;;;;8.63;5.28;;;18.00;1.00;;;;;;5113171;28;20268;-86
2022/04/28 05:12:58;;;;;;;6.65;4.30;;;18.60;1.00;;;;;;5112869;28;20555;-86
2022/04/28 05:15:25;;;;;;;7.82;3.67;;;19.30;1.00;;;;;;5112935;28;20226;-86
2022/04/28 05:17:52;;;;;;;12.30;5.78;;;19.90;1.00;;;;;;5112884;28;20229;-86
2022/04/28 05:20:19;;;;;;;14.70;9.23;;;20.50;1.00;;;;;;5112834;28;20637;-86
2022/04/28 05:22:47;;;;;;;11.55;10.15;;;21.10;1.00;;;;;;5113377;28;20222;-90
2022/04/28 05:25:14;;;;;;;6.38;4.78;;;21.60;1.00;;;;;;5112401;28;20129;-88
2022/04/28 05:27:42;;;;;;;6.15;4.25;;;22.10;1.00;;;;;;5112494;28;20282;-88
2022/04/28 05:30:11;;;;;;;7.55;4.20;;;22.50;1.00;;;;;;5112452;28;20279;-86
2022/04/28 05:32:38;;;;;;;7.25;5.90;;;22.50;1.00;;;;;;5113025;28;20229;-87
2022/04/28 05:35:05;;;;;;;8.60;4.78;;;22.70;1.00;;;;;;5112925;28;20305;-87
2022/04/28 05:37:33;;;;;;;5.93;3.67;;;22.90;1.00;;;;;;5113114;28;20286;-89
2022/04/28 05:39:59;;;;;;;8.05;4.07;;;23.20;1.00;;;;;;5112644;28;20229;-88
2022/04/28 05:45:41;;;;;;;6.85;3.75;;;23.80;1.00;;;;;;5112636;28;20286;-88
2022/04/28 05:47:59;;;;;;;8.00;3.65;;;24.40;1.00;;;;;;5091877;28;20222;-89
2022/04/28 05:50:26;;;;;;;6.72;3.40;;;24.30;1.00;;;;;;5109910;28;20194;-90
2022/04/28 05:52:53;;;;;;;6.82;3.45;;;24.40;1.00;;;;;;5112507;28;20225;-89
2022/04/28 05:55:20;;;;;;;7.00;3.28;;;24.60;1.00;;;;;;5112464;28;20682;-88
2022/04/28 05:57:47;;;;;;;12.65;4.20;;;24.60;1.00;;;;;;5115509;28;20226;-89
2022/04/28 06:00:17;;;;;;;5.13;3.10;;;24.60;1.00;;;;;;5117286;28;20191;-90
2022/04/28 06:02:44;;;;;;;5.97;3.80;;;24.90;1.00;;;;;;5117332;28;20247;-88
2022/04/28 06:05:11;;;;;;;6.20;3.10;;;25.10;1.00;;;;;;5116889;28;20706;-88
2022/04/28 06:07:38;;;;;;;6.43;2.97;;;25.30;1.00;;;;;;5116826;28;20277;-89
2022/04/28 06:10:05;;;;;;;5.82;3.42;;;25.50;1.00;;;;;;5116718;28;20278;-89
2022/04/28 06:12:32;;;;;;;3.90;2.75;;;25.90;1.00;;;;;;5116803;28;20278;-89
2022/04/28 06:14:59;;;;;;;6.90;3.60;;;26.10;1.00;;;;;;5116355;28;20242;-88
2022/04/28 06:17:27;;;;;;;;;;;26.20;1.00;;;;;;5116335;28;20177;-90
2022/04/28 06:19:54;;;;;;;18.17;12.70;;;26.80;1.00;;;;;;5116323;28;20066;-88
2022/04/28 06:22:21;;;;;;;14.27;10.13;;;27.40;1.00;;;;;;5116359;28;20726;-89
2022/04/28 06:24:51;;;;;;;5.35;2.90;;;27.90;1.00;;;;;;5116434;28;20301;-87
2022/04/28 06:27:18;;;;;;;4.00;2.70;;;28.20;1.00;;;;;;5116193;28;20635;-86
2022/04/28 06:29:45;;;;;;;3.53;2.47;;;28.60;1.00;;;;;;5116277;28;20657;-86
2022/04/28 06:32:13;;;;;;;4.75;2.60;;;29.00;1.00;;;;;;5116207;28;20230;-86
2022/04/28 06:34:41;;;;;;;2.90;2.25;;;29.30;1.00;;;;;;5116339;28;20283;-86
2022/04/28 06:37:08;;;;;;;5.13;2.55;;;29.50;1.00;;;;;;5115817;28;20565;-88
2022/04/28 06:39:35;;;;;;;8.88;2.90;;;29.90;1.00;;;;;;5116102;28;20223;-85
2022/04/28 06:42:01;;;;;;;4.63;2.50;;;30.10;1.00;;;;;;5115860;28;20232;-86
2022/04/28 06:44:28;;;;;;;5.18;2.40;;;30.40;1.00;;;;;;5115670;28;20227;-86
2022/04/28 06:46:55;;;;;;;3.53;2.42;;;30.20;1.00;;;;;;5115619;28;20217;-88
2022/04/28 06:49:22;;;;;;;9.80;8.65;;;29.80;1.00;;;;;;5115923;28;20190;-88
2022/04/28 06:51:50;;;;;;;19.02;11.85;;;29.80;1.00;;;;;;5115955;28;20191;-88
2022/04/28 06:54:17;;;;;;;4.90;2.90;;;30.10;1.00;;;;;;5115694;28;20674;-86
2022/04/28 06:56:45;;;;;;;5.95;2.50;;;30.20;1.00;;;;;;5115918;28;20223;-87
2022/04/28 06:59:12;;;;;;;5.20;2.50;;;30.40;1.00;;;;;;5115400;28;20197;-85
2022/04/28 07:01:39;;;;;;;3.42;2.63;;;30.60;1.00;;;;;;5115378;28;20643;-87
2022/04/28 07:04:06;;;;;;;4.53;2.58;;;30.70;1.00;;;;;;5115584;28;20250;-86
2022/04/28 07:06:33;;;;;;;5.82;3.05;;;30.70;1.00;;;;;;5115682;28;20234;-87
2022/04/28 07:09:01;;;;;;;7.97;3.20;;;30.50;1.00;;;;;;5114837;28;20223;-88
2022/04/28 07:11:28;;;;;;;3.50;2.63;;;30.40;1.00;;;;;;5115223;28;20226;-86
2022/04/28 07:13:55;;;;;;;3.17;2.60;;;30.50;1.00;;;;;;5115735;28;20226;-88
2022/04/28 07:16:22;;;;;;;5.03;2.65;;;30.60;1.00;;;;;;5114724;28;20226;-86
2022/04/28 07:18:49;;;;;;;3.25;2.83;;;30.70;1.00;;;;;;5115270;28;20653;-88
2022/04/28 07:21:16;;;;;;;4.25;2.88;;;30.80;1.00;;;;;;5115582;28;20218;-87
2022/04/28 07:23:43;;;;;;;6.53;4.13;;;30.60;1.00;;;;;;5115338;28;20269;-86
2022/04/28 07:26:11;;;;;;;9.23;3.90;;;30.50;1.00;;;;;;5114902;28;20306;-85
2022/04/28 07:28:38;;;;;;;3.78;3.03;;;30.70;1.00;;;;;;5114701;28;20233;-85
2022/04/28 07:31:05;;;;;;;4.47;2.80;;;30.90;1.00;;;;;;5115123;28;20274;-85
2022/04/28 07:33:33;;;;;;;5.72;3.08;;;31.00;1.00;;;;;;5115092;28;20281;-87
2022/04/28 07:35:59;;;;;;;8.55;3.50;;;31.10;1.00;;;;;;5115061;28;20552;-88
2022/04/28 07:38:26;;;;;;;4.03;3.35;;;31.40;1.00;;;;;;5115090;28;20316;-86
2022/04/28 07:40:55;;;;;;;5.82;3.42;;;31.20;1.00;;;;;;5114558;28;20278;-86
2022/04/28 07:43:25;;;;;;;5.53;3.45;;;30.90;1.00;;;;;;5115078;28;20187;-86
2022/04/28 07:45:52;;;;;;;6.70;4.00;;;30.50;1.00;;;;;;5114525;28;20572;-85
2022/04/28 07:48:19;;;;;;;5.68;4.13;;;30.50;1.00;;;;;;5115135;28;20219;-87
2022/04/28 07:50:46;;;;;;;5.45;3.75;;;30.30;1.00;;;;;;5114828;28;20277;-87
2022/04/28 07:53:14;;;;;;;6.00;4.40;;;30.20;1.00;;;;;;5114669;28;20256;-86
2022/04/28 07:55:40;;;;;;;7.00;3.95;;;30.20;1.00;;;;;;5114636;28;20198;-86
2022/04/28 07:58:08;;;;;;;5.38;4.25;;;30.20;1.00;;;;;;5114599;28;20222;-85
2022/04/28 08:00:36;;;;;;;6.30;4.55;;;30.30;1.00;;;;;;5114228;28;20201;-87
2022/04/28 08:03:03;;;;;;;10.00;4.20;;;30.50;1.00;;;;;;5114266;28;20655;-87
2022/04/28 08:05:30;;;;;;;5.45;4.50;;;30.50;1.00;;;;;;5114339;28;20228;-88
2022/04/28 08:07:57;;;;;;;10.20;5.30;;;30.30;1.00;;;;;;5114409;28;20278;-87
2022/04/28 08:10:24;;;;;;;8.50;5.13;;;30.10;1.00;;;;;;5113967;28;20651;-86
2022/04/28 08:12:51;;;;;;;6.40;5.22;;;30.10;1.00;;;;;;5114250;28;20627;-86
2022/04/28 08:15:18;;;;;;;8.05;5.38;;;30.00;1.00;;;;;;5114509;28;20308;-86
2022/04/28 08:17:46;;;;;;;7.78;5.50;;;30.00;1.00;;;;;;5114299;28;20191;-86
2022/04/28 08:20:13;;;;;;;9.77;5.75;;;30.20;1.00;;;;;;5113306;28;20285;-85
2022/04/28 08:22:40;;;;;;;9.85;5.70;;;30.10;1.00;;;;;;5113916;28;20603;-85
2022/04/28 08:25:08;;;;;;;6.68;5.10;;;29.90;1.00;;;;;;5114066;28;20226;-85
2022/04/28 08:27:35;;;;;;;6.30;4.88;;;29.50;1.00;;;;;;5113714;28;20190;-87
2022/04/28 08:30:02;;;;;;;7.00;5.25;;;29.70;1.00;;;;;;5113694;28;20239;-86
2022/04/28 08:32:29;;;;;;;8.48;5.47;;;30.00;1.00;;;;;;5114024;28;20286;-85
2022/04/28 08:34:57;;;;;;;5.90;5.10;;;30.30;1.00;;;;;;5113680;28;20736;-86
2022/04/28 08:37:24;;;;;;;6.75;6.05;;;30.60;1.00;;;;;;5113939;28;20222;-86
2022/04/28 08:39:51;;;;;;;7.97;5.80;;;30.80;1.00;;;;;;5114015;28;20293;-86
2022/04/28 08:42:20;;;;;;;7.57;6.07;;;30.80;1.00;;;;;;5113754;28;20273;-87
2022/04/28 08:44:47;;;;;;;7.40;5.63;;;31.00;1.00;;;;;;5113433;28;20283;-88
2022/04/28 08:47:14;;;;;;;7.75;5.30;;;31.20;1.00;;;;;;5113800;28;20234;-86
2022/04/28 08:49:43;;;;;;;8.32;5.60;;;31.30;1.00;;;;;;5113624;28;20277;-89
2022/04/28 08:52:13;;;;;;;8.77;5.53;;;31.30;1.00;;;;;;5113733;28;20606;-85
2022/04/28 08:54:40;;;;;;;6.85;5.22;;;31.20;1.00;;;;;;5113214;28;20594;-88
2022/04/28 08:57:07;;;;;;;7.93;4.97;;;31.10;1.00;;;;;;5113018;28;20232;-86
2022/04/28 08:59:34;;;;;;;10.70;8.18;;;31.00;1.00;;;;;;5113173;28;20222;-85
2022/04/28 09:02:01;;;;;;;8.38;5.78;;;30.80;1.00;;;;;;5113514;28;20186;-85
2022/04/28 09:04:28;;;;;;;7.25;5.57;;;30.70;1.00;;;;;;5113469;28;20277;-87
2022/04/28 09:06:56;;;;;;;7.65;5.45;;;30.70;1.00;;;;;;5113400;28;20218;-86
2022/04/28 09:09:27;;;;;;;8.07;5.78;;;30.80;1.00;;;;;;5113179;28;20635;-85
2022/04/28 09:11:58;;;;;;;12.52;6.95;;;30.80;1.00;;;;;;5113567;28;20278;-86
2022/04/28 09:14:26;;;;;;;7.28;5.43;;;30.50;1.00;;;;;;5113523;28;20217;-87
2022/04/28 09:16:56;;;;;;;6.68;5.63;;;30.40;1.00;;;;;;5113580;28;20253;-87
2022/04/28 09:19:24;;;;;;;9.48;6.07;;;30.40;1.00;;;;;;5113401;28;20179;-85
2022/04/28 09:21:53;;;;;;;6.68;5.35;;;30.30;1.00;;;;;;5113510;28;20213;-87
2022/04/28 09:24:21;;;;;;;7.60;5.78;;;30.30;1.00;;;;;;5112863;28;20281;-86
2022/04/28 09:26:50;;;;;;;15.95;8.35;;;30.20;1.00;;;;;;5113040;28;20280;-85
2022/04/28 09:29:19;;;;;;;12.07;6.45;;;29.90;1.00;;;;;;5112796;28;20226;-86
2022/04/28 09:31:47;;;;;;;7.20;5.85;;;29.70;1.00;;;;;;5112717;28;20194;-85
2022/04/28 09:34:15;;;;;;;11.77;7.10;;;29.30;1.00;;;;;;5112994;28;20214;-87
2022/04/28 09:36:43;;;;;;;10.80;7.78;;;29.00;1.00;;;;;;5113060;28;20234;-84
2022/04/28 09:42:29;;;;;;;9.10;7.07;;;28.20;1.00;;;;;;5112611;28;20197;-87
2022/04/28 09:44:52;;;;;;;17.77;10.45;;;26.90;1.00;;;;;;5112440;28;20189;-85
2022/04/28 09:47:19;;;;;;;12.05;7.15;;;26.50;1.00;;;;;;5112667;28;20281;-84
2022/04/28 09:49:52;;;;;;;14.13;6.93;;;25.90;1.00;;;;;;5113081;28;20205;-85
2022/04/28 09:52:19;;;;;;;9.63;6.82;;;25.50;1.00;;;;;;5112732;28;20623;-85
2022/04/28 09:54:47;;;;;;;10.23;6.80;;;25.10;1.00;;;;;;5112774;28;20187;-85
2022/04/28 09:57:17;;;;;;;11.57;7.60;;;24.90;1.00;;;;;;5112742;28;20226;-86
2022/04/28 09:59:44;;;;;;;12.60;7.70;;;24.80;1.00;;;;;;5112775;28;20176;-85
2022/04/28 10:02:16;;;;;;;10.05;6.78;;;24.70;1.00;;;;;;5112638;28;20643;-85
2022/04/28 10:04:43;;;;;;;8.95;6.65;;;24.60;1.00;;;;;;5112119;28;20637;-86
2022/04/28 10:07:14;;;;;;;13.32;7.20;;;24.50;1.00;;;;;;5112706;28;20233;-85
2022/04/28 10:09:41;;;;;;;14.15;8.43;;;24.60;1.00;;;;;;5112957;28;20222;-85
2022/04/28 10:12:10;;;;;;;12.55;7.88;;;24.40;1.00;;;;;;5112143;28;20230;-86
2022/04/28 10:14:41;;;;;;;10.13;7.15;;;23.90;1.00;;;;;;5112391;28;20226;-84
2022/04/28 10:17:14;;;;;;;10.50;7.25;;;23.70;1.00;;;;;;5112745;28;20187;-86
2022/04/28 10:19:45;;;;;;;12.50;7.65;;;23.70;1.00;;;;;;5112746;28;20178;-87
2022/04/28 10:22:17;;;;;;;8.32;6.50;;;23.50;1.00;;;;;;5112603;28;20214;-89
2022/04/28 10:33:10;;;;;;;6.82;5.30;;;23.80;1.00;;;;;;5112287;28;20253;-88
2022/04/28 10:35:43;;;;;;;7.82;5.28;;;23.80;1.00;;;;;;5112523;28;20191;-88
2022/04/28 10:38:15;;;;;;;8.85;5.50;;;23.90;1.00;;;;;;5112146;28;20251;-87
2022/04/28 10:40:44;;;;;;;10.65;5.78;;;24.10;1.00;;;;;;5112069;28;20654;-89
2022/04/28 10:43:23;;;;;;;6.93;5.40;;;23.80;1.00;;;;;;5112476;28;20236;-87
2022/04/28 10:45:53;;;;;;;9.82;6.45;;;23.40;1.00;;;;;;5116047;28;20272;-85
2022/04/28 10:48:29;;;;;;;12.95;8.07;;;23.30;1.00;;;;;;5116266;28;20171;-86
2022/04/28 10:51:15;;;;;;;9.60;6.78;;;22.90;1.00;;;;;;5116245;28;20171;-87
2022/04/28 10:53:59;;;;;;;;;;;22.40;1.00;;;;;;5116297;28;20171;-88
2022/04/28 10:56:27;;;;;;;6.65;5.90;;;21.90;1.00;;;;;;5115798;28;20158;-87
2022/04/28 10:58:58;;;;;;;22.50;6.35;;;21.40;1.00;;;;;;5115522;28;20195;-88
2022/04/28 11:01:28;;;;;;;7.55;5.55;;;21.50;1.00;;;;;;5116010;28;20214;-86
2022/04/28 11:03:57;;;;;;;7.55;5.20;;;21.60;1.00;;;;;;5115760;28;20240;-88
2022/04/28 11:06:29;;;;;;;10.75;4.35;;;21.50;1.00;;;;;;5115587;28;20273;-86
2022/04/28 11:08:58;;;;;;;7.70;4.93;;;21.50;1.00;;;;;;5115363;28;20623;-86
2022/04/28 11:11:28;;;;;;;10.68;7.28;;;21.50;1.00;;;;;;5115244;28;20644;-86
2022/04/28 11:13:57;;;;;;;11.13;6.88;;;21.20;1.00;;;;;;5115163;28;20169;-86
2022/04/28 11:16:26;;;;;;;7.75;5.60;;;20.90;1.00;;;;;;5115434;28;20218;-88
2022/04/28 11:18:54;;;;;;;;;;;20.60;1.00;;;;;;5115936;28;20076;-87
2022/04/28 11:21:22;;;;;;;6.40;5.00;;;20.40;1.00;;;;;;5115683;27;20412;-86
2022/04/28 11:23:51;;;;;;;8.23;5.03;;;20.30;1.00;;;;;;5115051;28;20277;-89
2022/04/28 11:26:19;;;;;;;8.48;5.00;;;20.40;1.00;;;;;;5115278;28;20273;-87
2022/04/28 11:28:47;;;;;;;11.05;5.55;;;20.40;1.00;;;;;;5115000;28;20909;-87
2022/04/28 11:31:16;;;;;;;18.40;5.82;;;20.40;1.00;;;;;;5115045;28;20222;-87
2022/04/28 11:33:46;;;;;;;8.35;4.82;;;20.40;1.00;;;;;;5115061;28;20639;-86
2022/04/28 11:36:25;;;;;;;11.50;5.57;;;20.50;1.00;;;;;;5115045;28;20199;-88
2022/04/28 11:38:54;;;;;;;7.28;5.50;;;20.80;1.00;;;;;;5115085;28;20214;-86
2022/04/28 11:41:29;;;;;;;7.38;5.10;;;20.90;1.00;;;;;;5115040;28;20233;-88
2022/04/28 11:44:00;;;;;;;8.25;5.40;;;20.80;1.00;;;;;;5114978;28;20186;-88
2022/04/28 11:46:27;;;;;;;8.07;5.65;;;20.60;1.00;;;;;;5114932;28;20222;-85
2022/04/28 11:48:55;;;;;;;8.73;6.25;;;20.30;1.00;;;;;;5114898;28;20513;-88
2022/04/28 11:51:24;;;;;;;8.10;5.93;;;20.10;1.00;;;;;;5114479;28;20544;-87
2022/04/28 11:53:52;;;;;;;10.23;5.80;;;20.20;1.00;;;;;;5114324;28;20189;-86
2022/04/28 11:56:21;;;;;;;8.60;5.40;;;20.40;1.00;;;;;;5114216;27;20554;-88
2022/04/28 11:58:50;;;;;;;7.82;5.68;;;20.60;1.00;;;;;;5114470;28;20187;-86
2022/04/28 12:01:19;;;;;;;9.57;5.55;;;20.70;1.00;;;;;;5114622;28;20321;-89
2022/04/28 12:03:58;;;;;;;9.13;5.28;;;20.80;1.00;;;;;;5114665;28;20248;-87
2022/04/28 12:06:26;;;;;;;7.68;5.43;;;20.90;1.00;;;;;;5114466;28;20211;-85
2022/04/28 12:08:55;;;;;;;5.60;4.05;;;21.00;1.00;;;;;;5114464;28;20228;-87
2022/04/28 12:14:25;;;;;;;8.55;5.88;;;21.20;1.00;;;;;;5114253;28;20175;-89
2022/04/28 12:20:01;;;;;;;9.38;5.15;;;21.30;1.00;;;;;;5114363;28;20221;-90
2022/04/28 12:22:35;;;;;;;9.23;5.55;;;21.20;1.00;;;;;;5114263;28;20179;-90
2022/04/28 12:25:07;;;;;;;8.60;5.18;;;21.00;1.00;;;;;;5114386;28;20190;-88
2022/04/28 12:27:43;;;;;;;9.55;5.63;;;20.90;1.00;;;;;;5114362;28;20249;-89
2022/04/28 12:30:12;;;;;;;6.50;4.82;;;20.80;1.00;;;;;;5114356;28;20218;-88
2022/04/28 12:32:45;;;;;;;7.35;4.97;;;21.10;1.00;;;;;;5114192;28;20194;-88
2022/04/28 12:35:26;;;;;;;8.52;5.40;;;21.40;1.00;;;;;;5114052;28;20227;-84
2022/04/28 12:38:01;;;;;;;8.50;4.90;;;21.60;1.00;;;;;;5113927;28;20273;-87
2022/04/28 12:40:37;;;;;;;8.27;5.22;;;21.80;1.00;;;;;;5113951;28;20262;-88
2022/04/28 12:43:04;;;;;;;10.30;5.32;;;22.10;1.00;;;;;;5113719;28;20715;-88
2022/04/28 12:45:40;;;;;;;7.25;4.88;;;22.00;1.00;;;;;;5113937;28;20191;-89
2022/04/28 12:48:09;;;;;;;6.13;4.63;;;21.80;1.00;;;;;;5112494;28;20283;-87
2022/04/28 12:50:37;;;;;;;7.15;4.57;;;21.50;1.00;;;;;;5109141;28;20199;-86
2022/04/28 12:53:04;;;;;;;10.23;5.70;;;21.20;1.00;;;;;;5113918;28;20268;-87
2022/04/28 12:55:37;;;;;;;8.23;6.10;;;20.80;1.00;;;;;;5113171;28;20218;-87
2022/04/28 12:58:04;;;;;;;17.67;7.60;;;20.50;1.00;;;;;;5113834;28;20594;-89
2022/04/28 13:00:38;;;;;;;8.63;7.07;;;20.20;1.00;;;;;;5113278;28;20199;-88
2022/04/28 13:03:08;;;;;;;7.03;6.13;;;20.20;1.00;;;;;;5116170;28;20278;-89
2022/04/28 13:05:35;;;;;;;52.30;9.00;;;20.20;1.00;;;;;;5117646;28;20187;-89
2022/04/28 13:08:04;;;;;;;18.98;7.72;;;20.20;1.00;;;;;;5116928;28;20218;-88
2022/04/28 13:10:32;;;;;;;10.68;5.60;;;20.20;1.00;;;;;;5119274;28;20218;-92
2022/04/28 13:12:58;;;;;;;10.10;6.35;;;20.30;1.00;;;;;;5115244;28;20214;-92
2022/04/28 13:15:26;;;;;;;8.48;5.82;;;20.40;1.00;;;;;;5117870;28;20267;-88
2022/04/28 13:17:52;;;;;;;10.00;6.32;;;20.50;1.00;;;;;;5118938;28;20201;-88
2022/04/28 13:20:20;;;;;;;7.88;5.35;;;20.60;1.00;;;;;;5120438;28;20213;-88
2022/04/28 13:22:47;;;;;;;7.50;5.18;;;20.70;1.00;;;;;;5115006;28;20222;-90
2022/04/28 13:25:16;;;;;;;8.45;6.32;;;20.80;1.00;;;;;;5114658;28;20233;-87
2022/04/28 13:27:43;;;;;;;9.98;6.63;;;20.90;1.00;;;;;;5113095;28;20221;-86
2022/04/28 13:30:11;;;;;;;9.35;5.55;;;20.90;1.00;;;;;;5111912;28;20304;-87
2022/04/28 13:32:38;;;;;;;12.25;8.90;;;20.80;1.00;;;;;;5107909;28;20548;-86
2022/04/28 13:35:06;;;;;;;9.07;6.47;;;20.60;1.00;;;;;;5113166;28;20668;-89